sensor_id;sensor_type;location;lat;lon;timestamp;P1;durP1;ratioP1;P2;durP2;ratioP2
52534;SDS011;38443;53.164;5.802;2024-03-07T00:03:52;34.13;;;16.57;;
52534;SDS011;38443;53.164;5.802;2024-03-07T00:08:42;37.33;;;16.70;;
52534;SDS011;38443;53.164;5.802;2024-03-07T00:13:32;35.78;;;17.00;;
52534;SDS011;38443;53.164;5.802;2024-03-07T00:18:23;34.72;;;17.38;;
52534;SDS011;38443;53.164;5.802;2024-03-07T00:23:14;32.10;;;15.00;;
52534;SDS011;38443;53.164;5.802;2024-03-07T00:25:41;31.27;;;17.08;;
52534;SDS011;38443;53.164;5.802;2024-03-07T00:30:32;36.80;;;17.48;;
52534;SDS011;38443;53.164;5.802;2024-03-07T00:32:59;38.42;;;17.38;;
52534;SDS011;38443;53.164;5.802;2024-03-07T00:37:50;34.20;;;17.27;;
52534;SDS011;38443;53.164;5.802;2024-03-07T00:42:40;37.60;;;16.80;;
52534;SDS011;38443;53.164;5.802;2024-03-07T00:47:31;35.50;;;16.92;;
52534;SDS011;38443;53.164;5.802;2024-03-07T00:52:22;32.92;;;16.35;;
52534;SDS011;38443;53.164;5.802;2024-03-07T00:57:12;36.97;;;16.60;;
52534;SDS011;38443;53.164;5.802;2024-03-07T01:02:03;32.78;;;17.90;;
52534;SDS011;38443;53.164;5.802;2024-03-07T01:06:56;38.03;;;16.77;;
52534;SDS011;38443;53.164;5.802;2024-03-07T01:11:48;38.10;;;16.60;;
52534;SDS011;38443;53.164;5.802;2024-03-07T01:14:14;35.00;;;17.50;;
52534;SDS011;38443;53.164;5.802;2024-03-07T01:19:05;34.60;;;16.70;;
52534;SDS011;38443;53.164;5.802;2024-03-07T01:21:33;37.72;;;16.65;;
52534;SDS011;38443;53.164;5.802;2024-03-07T01:26:25;36.67;;;16.17;;
52534;SDS011;38443;53.164;5.802;2024-03-07T01:28:50;33.15;;;16.55;;
52534;SDS011;38443;53.164;5.802;2024-03-07T01:33:41;35.10;;;17.45;;
52534;SDS011;38443;53.164;5.802;2024-03-07T01:38:31;39.90;;;17.63;;
52534;SDS011;38443;53.164;5.802;2024-03-07T01:43:22;36.42;;;16.55;;
52534;SDS011;38443;53.164;5.802;2024-03-07T01:48:12;35.05;;;15.98;;
52534;SDS011;38443;53.164;5.802;2024-03-07T01:50:41;33.22;;;15.48;;
52534;SDS011;38443;53.164;5.802;2024-03-07T01:55:32;35.07;;;15.90;;
52534;SDS011;38443;53.164;5.802;2024-03-07T02:00:23;35.53;;;15.93;;
52534;SDS011;38443;53.164;5.802;2024-03-07T02:05:13;30.30;;;15.18;;
52534;SDS011;38443;53.164;5.802;2024-03-07T02:10:04;30.73;;;15.83;;
52534;SDS011;38443;53.164;5.802;2024-03-07T02:14:55;33.92;;;16.17;;
52534;SDS011;38443;53.164;5.802;2024-03-07T02:17:22;31.13;;;15.10;;
52534;SDS011;38443;53.164;5.802;2024-03-07T02:22:12;32.15;;;15.55;;
52534;SDS011;38443;53.164;5.802;2024-03-07T02:29:30;32.55;;;15.25;;
52534;SDS011;38443;53.164;5.802;2024-03-07T02:34:21;32.72;;;15.63;;
52534;SDS011;38443;53.164;5.802;2024-03-07T02:39:12;34.10;;;15.07;;
52534;SDS011;38443;53.164;5.802;2024-03-07T02:44:03;28.80;;;14.30;;
52534;SDS011;38443;53.164;5.802;2024-03-07T02:48:54;33.38;;;15.77;;
52534;SDS011;38443;53.164;5.802;2024-03-07T02:53:44;32.65;;;13.85;;
52534;SDS011;38443;53.164;5.802;2024-03-07T02:58:34;33.65;;;14.70;;
52534;SDS011;38443;53.164;5.802;2024-03-07T03:03:27;27.53;;;14.13;;
52534;SDS011;38443;53.164;5.802;2024-03-07T03:05:53;30.08;;;14.63;;
52534;SDS011;38443;53.164;5.802;2024-03-07T03:10:43;35.08;;;15.60;;
52534;SDS011;38443;53.164;5.802;2024-03-07T03:15:34;31.15;;;15.20;;
52534;SDS011;38443;53.164;5.802;2024-03-07T03:20:25;30.77;;;15.40;;
52534;SDS011;38443;53.164;5.802;2024-03-07T03:25:16;28.00;;;13.63;;
52534;SDS011;38443;53.164;5.802;2024-03-07T03:30:06;32.60;;;15.00;;
52534;SDS011;38443;53.164;5.802;2024-03-07T03:34:57;32.25;;;16.02;;
52534;SDS011;38443;53.164;5.802;2024-03-07T03:37:23;30.42;;;14.70;;
52534;SDS011;38443;53.164;5.802;2024-03-07T03:42:14;25.30;;;15.25;;
52534;SDS011;38443;53.164;5.802;2024-03-07T03:47:05;33.38;;;15.30;;
52534;SDS011;38443;53.164;5.802;2024-03-07T03:51:55;33.58;;;15.82;;
52534;SDS011;38443;53.164;5.802;2024-03-07T03:56:46;27.85;;;14.32;;
52534;SDS011;38443;53.164;5.802;2024-03-07T04:01:36;31.42;;;15.45;;
52534;SDS011;38443;53.164;5.802;2024-03-07T04:06:26;30.52;;;15.60;;
52534;SDS011;38443;53.164;5.802;2024-03-07T04:11:17;26.10;;;14.18;;
52534;SDS011;38443;53.164;5.802;2024-03-07T04:16:07;31.03;;;14.30;;
52534;SDS011;38443;53.164;5.802;2024-03-07T04:20:58;25.75;;;14.25;;
52534;SDS011;38443;53.164;5.802;2024-03-07T04:25:50;30.17;;;14.43;;
52534;SDS011;38443;53.164;5.802;2024-03-07T04:28:16;31.63;;;14.65;;
52534;SDS011;38443;53.164;5.802;2024-03-07T04:33:07;34.17;;;15.95;;
52534;SDS011;38443;53.164;5.802;2024-03-07T04:37:58;27.48;;;14.05;;
52534;SDS011;38443;53.164;5.802;2024-03-07T04:42:49;30.60;;;14.23;;
52534;SDS011;38443;53.164;5.802;2024-03-07T04:47:42;28.52;;;14.90;;
52534;SDS011;38443;53.164;5.802;2024-03-07T04:50:08;31.90;;;14.43;;
52534;SDS011;38443;53.164;5.802;2024-03-07T04:52:35;27.55;;;12.73;;
52534;SDS011;38443;53.164;5.802;2024-03-07T04:57:26;32.83;;;16.30;;
52534;SDS011;38443;53.164;5.802;2024-03-07T05:02:17;32.63;;;13.70;;
52534;SDS011;38443;53.164;5.802;2024-03-07T05:07:07;24.00;;;12.47;;
52534;SDS011;38443;53.164;5.802;2024-03-07T05:11:58;31.17;;;14.60;;
52534;SDS011;38443;53.164;5.802;2024-03-07T05:16:50;24.02;;;14.27;;
52534;SDS011;38443;53.164;5.802;2024-03-07T05:19:30;28.38;;;13.70;;
52534;SDS011;38443;53.164;5.802;2024-03-07T05:24:20;28.77;;;13.83;;
52534;SDS011;38443;53.164;5.802;2024-03-07T05:29:10;25.17;;;13.50;;
52534;SDS011;38443;53.164;5.802;2024-03-07T05:34:01;29.50;;;14.83;;
52534;SDS011;38443;53.164;5.802;2024-03-07T05:36:33;28.58;;;13.70;;
52534;SDS011;38443;53.164;5.802;2024-03-07T05:41:24;31.25;;;14.55;;
52534;SDS011;38443;53.164;5.802;2024-03-07T05:46:16;25.55;;;14.18;;
52534;SDS011;38443;53.164;5.802;2024-03-07T05:51:06;26.27;;;13.20;;
52534;SDS011;38443;53.164;5.802;2024-03-07T05:55:57;29.45;;;12.82;;
52534;SDS011;38443;53.164;5.802;2024-03-07T06:00:47;30.67;;;14.45;;
52534;SDS011;38443;53.164;5.802;2024-03-07T06:03:18;36.13;;;16.05;;
52534;SDS011;38443;53.164;5.802;2024-03-07T06:05:45;33.47;;;15.38;;
52534;SDS011;38443;53.164;5.802;2024-03-07T06:08:13;34.45;;;17.23;;
52534;SDS011;38443;53.164;5.802;2024-03-07T06:13:05;29.02;;;13.32;;
52534;SDS011;38443;53.164;5.802;2024-03-07T06:17:56;32.83;;;16.05;;
52534;SDS011;38443;53.164;5.802;2024-03-07T06:22:50;32.63;;;15.88;;
52534;SDS011;38443;53.164;5.802;2024-03-07T06:25:18;27.60;;;15.05;;
52534;SDS011;38443;53.164;5.802;2024-03-07T06:27:59;33.10;;;16.25;;
52534;SDS011;38443;53.164;5.802;2024-03-07T06:32:49;30.00;;;15.38;;
52534;SDS011;38443;53.164;5.802;2024-03-07T06:37:41;29.10;;;13.82;;
52534;SDS011;38443;53.164;5.802;2024-03-07T06:42:34;30.42;;;15.25;;
52534;SDS011;38443;53.164;5.802;2024-03-07T06:45:02;32.85;;;15.82;;
52534;SDS011;38443;53.164;5.802;2024-03-07T06:49:52;37.05;;;16.98;;
52534;SDS011;38443;53.164;5.802;2024-03-07T06:54:43;28.50;;;15.60;;
52534;SDS011;38443;53.164;5.802;2024-03-07T06:59:33;33.83;;;17.67;;
52534;SDS011;38443;53.164;5.802;2024-03-07T07:04:24;30.15;;;15.57;;
52534;SDS011;38443;53.164;5.802;2024-03-07T07:06:50;37.05;;;18.08;;
52534;SDS011;38443;53.164;5.802;2024-03-07T07:11:44;32.85;;;17.10;;
52534;SDS011;38443;53.164;5.802;2024-03-07T07:14:10;36.63;;;17.88;;
52534;SDS011;38443;53.164;5.802;2024-03-07T07:19:01;36.70;;;18.07;;
52534;SDS011;38443;53.164;5.802;2024-03-07T07:23:52;37.70;;;16.23;;
52534;SDS011;38443;53.164;5.802;2024-03-07T07:28:42;40.30;;;20.77;;
52534;SDS011;38443;53.164;5.802;2024-03-07T07:33:34;38.10;;;18.83;;
52534;SDS011;38443;53.164;5.802;2024-03-07T07:38:25;37.08;;;19.13;;
52534;SDS011;38443;53.164;5.802;2024-03-07T07:43:16;39.55;;;18.17;;
52534;SDS011;38443;53.164;5.802;2024-03-07T07:48:07;46.00;;;20.25;;
52534;SDS011;38443;53.164;5.802;2024-03-07T07:52:59;36.85;;;19.42;;
52534;SDS011;38443;53.164;5.802;2024-03-07T07:57:50;42.57;;;21.63;;
52534;SDS011;38443;53.164;5.802;2024-03-07T08:00:20;39.55;;;21.00;;
52534;SDS011;38443;53.164;5.802;2024-03-07T08:02:58;41.63;;;20.17;;
52534;SDS011;38443;53.164;5.802;2024-03-07T08:05:24;43.72;;;19.88;;
52534;SDS011;38443;53.164;5.802;2024-03-07T08:07:50;40.45;;;20.40;;
52534;SDS011;38443;53.164;5.802;2024-03-07T08:10:16;43.33;;;21.17;;
52534;SDS011;38443;53.164;5.802;2024-03-07T08:15:09;44.83;;;19.92;;
52534;SDS011;38443;53.164;5.802;2024-03-07T08:17:34;45.75;;;21.52;;
52534;SDS011;38443;53.164;5.802;2024-03-07T08:22:25;40.67;;;20.17;;
52534;SDS011;38443;53.164;5.802;2024-03-07T08:27:17;44.63;;;20.10;;
52534;SDS011;38443;53.164;5.802;2024-03-07T08:29:43;37.17;;;19.05;;
52534;SDS011;38443;53.164;5.802;2024-03-07T08:34:33;43.13;;;19.40;;
52534;SDS011;38443;53.164;5.802;2024-03-07T08:39:24;41.20;;;19.90;;
52534;SDS011;38443;53.164;5.802;2024-03-07T08:44:14;45.13;;;21.50;;
52534;SDS011;38443;53.164;5.802;2024-03-07T08:49:06;46.03;;;21.45;;
52534;SDS011;38443;53.164;5.802;2024-03-07T08:53:57;53.10;;;22.37;;
52534;SDS011;38443;53.164;5.802;2024-03-07T08:58:48;41.45;;;21.38;;
52534;SDS011;38443;53.164;5.802;2024-03-07T09:03:38;41.30;;;20.23;;
52534;SDS011;38443;53.164;5.802;2024-03-07T09:08:29;43.08;;;20.67;;
52534;SDS011;38443;53.164;5.802;2024-03-07T09:13:21;52.03;;;22.42;;
52534;SDS011;38443;53.164;5.802;2024-03-07T09:15:46;61.28;;;25.35;;
52534;SDS011;38443;53.164;5.802;2024-03-07T09:20:37;62.17;;;22.70;;
52534;SDS011;38443;53.164;5.802;2024-03-07T09:25:28;67.33;;;23.67;;
52534;SDS011;38443;53.164;5.802;2024-03-07T09:27:58;58.15;;;22.70;;
52534;SDS011;38443;53.164;5.802;2024-03-07T09:30:25;56.33;;;22.05;;
52534;SDS011;38443;53.164;5.802;2024-03-07T09:32:52;46.03;;;20.50;;
52534;SDS011;38443;53.164;5.802;2024-03-07T09:35:20;42.58;;;19.80;;
52534;SDS011;38443;53.164;5.802;2024-03-07T09:40:10;36.97;;;18.13;;
52534;SDS011;38443;53.164;5.802;2024-03-07T09:42:43;40.60;;;19.23;;
52534;SDS011;38443;53.164;5.802;2024-03-07T09:45:10;40.30;;;19.48;;
52534;SDS011;38443;53.164;5.802;2024-03-07T09:47:36;35.65;;;18.02;;
52534;SDS011;38443;53.164;5.802;2024-03-07T09:52:27;42.03;;;16.87;;
52534;SDS011;38443;53.164;5.802;2024-03-07T09:54:54;42.40;;;19.08;;
52534;SDS011;38443;53.164;5.802;2024-03-07T09:59:44;42.92;;;16.17;;
52534;SDS011;38443;53.164;5.802;2024-03-07T10:02:11;39.03;;;18.10;;
52534;SDS011;38443;53.164;5.802;2024-03-07T10:04:44;45.38;;;19.25;;
52534;SDS011;38443;53.164;5.802;2024-03-07T10:07:17;38.72;;;18.58;;
52534;SDS011;38443;53.164;5.802;2024-03-07T10:09:43;40.05;;;18.63;;
52534;SDS011;38443;53.164;5.802;2024-03-07T10:14:49;42.05;;;18.35;;
52534;SDS011;38443;53.164;5.802;2024-03-07T10:17:18;38.55;;;17.95;;
52534;SDS011;38443;53.164;5.802;2024-03-07T10:22:08;37.17;;;18.73;;
52534;SDS011;38443;53.164;5.802;2024-03-07T10:27:00;45.40;;;19.97;;
52534;SDS011;38443;53.164;5.802;2024-03-07T10:29:26;48.60;;;21.45;;
52534;SDS011;38443;53.164;5.802;2024-03-07T10:34:16;39.10;;;19.67;;
52534;SDS011;38443;53.164;5.802;2024-03-07T10:39:08;47.63;;;19.02;;
52534;SDS011;38443;53.164;5.802;2024-03-07T10:41:42;36.65;;;17.85;;
52534;SDS011;38443;53.164;5.802;2024-03-07T10:44:09;43.47;;;18.48;;
52534;SDS011;38443;53.164;5.802;2024-03-07T10:46:36;36.60;;;16.02;;
52534;SDS011;38443;53.164;5.802;2024-03-07T10:51:39;37.65;;;18.90;;
52534;SDS011;38443;53.164;5.802;2024-03-07T10:54:20;37.83;;;18.27;;
52534;SDS011;38443;53.164;5.802;2024-03-07T10:59:27;37.33;;;16.80;;
52534;SDS011;38443;53.164;5.802;2024-03-07T11:04:41;34.25;;;17.73;;
52534;SDS011;38443;53.164;5.802;2024-03-07T11:09:32;40.50;;;17.97;;
52534;SDS011;38443;53.164;5.802;2024-03-07T11:11:59;32.78;;;15.60;;
52534;SDS011;38443;53.164;5.802;2024-03-07T11:14:25;41.38;;;17.35;;
52534;SDS011;38443;53.164;5.802;2024-03-07T11:19:28;33.27;;;15.90;;
52534;SDS011;38443;53.164;5.802;2024-03-07T11:21:56;33.60;;;17.20;;
52534;SDS011;38443;53.164;5.802;2024-03-07T11:26:47;36.05;;;16.17;;
52534;SDS011;38443;53.164;5.802;2024-03-07T11:31:38;34.25;;;14.77;;
52534;SDS011;38443;53.164;5.802;2024-03-07T11:34:14;41.08;;;16.15;;
52534;SDS011;38443;53.164;5.802;2024-03-07T11:36:43;37.63;;;16.17;;
52534;SDS011;38443;53.164;5.802;2024-03-07T11:39:38;30.08;;;15.70;;
52534;SDS011;38443;53.164;5.802;2024-03-07T11:44:21;35.70;;;15.63;;
52534;SDS011;38443;53.164;5.802;2024-03-07T11:49:13;35.92;;;15.10;;
52534;SDS011;38443;53.164;5.802;2024-03-07T11:51:38;30.73;;;16.02;;
52534;SDS011;38443;53.164;5.802;2024-03-07T11:56:30;30.33;;;13.60;;
52534;SDS011;38443;53.164;5.802;2024-03-07T12:01:22;30.90;;;13.27;;
52534;SDS011;38443;53.164;5.802;2024-03-07T12:03:50;25.55;;;13.77;;
52534;SDS011;38443;53.164;5.802;2024-03-07T12:06:17;26.48;;;13.38;;
52534;SDS011;38443;53.164;5.802;2024-03-07T12:08:44;28.67;;;12.45;;
52534;SDS011;38443;53.164;5.802;2024-03-07T12:13:40;31.35;;;13.32;;
52534;SDS011;38443;53.164;5.802;2024-03-07T12:18:33;31.17;;;14.07;;
52534;SDS011;38443;53.164;5.802;2024-03-07T12:23:25;30.05;;;13.52;;
52534;SDS011;38443;53.164;5.802;2024-03-07T12:26:00;28.45;;;13.80;;
52534;SDS011;38443;53.164;5.802;2024-03-07T12:28:27;27.92;;;13.80;;
52534;SDS011;38443;53.164;5.802;2024-03-07T12:33:18;24.02;;;13.10;;
52534;SDS011;38443;53.164;5.802;2024-03-07T12:35:44;35.35;;;15.70;;
52534;SDS011;38443;53.164;5.802;2024-03-07T12:38:10;25.73;;;12.73;;
52534;SDS011;38443;53.164;5.802;2024-03-07T12:43:02;23.88;;;12.57;;
52534;SDS011;38443;53.164;5.802;2024-03-07T12:45:37;27.95;;;13.52;;
52534;SDS011;38443;53.164;5.802;2024-03-07T12:48:03;27.00;;;12.75;;
52534;SDS011;38443;53.164;5.802;2024-03-07T12:50:29;32.53;;;13.65;;
52534;SDS011;38443;53.164;5.802;2024-03-07T12:55:20;29.58;;;13.65;;
52534;SDS011;38443;53.164;5.802;2024-03-07T12:57:47;30.85;;;14.93;;
52534;SDS011;38443;53.164;5.802;2024-03-07T13:02:44;28.35;;;12.85;;
52534;SDS011;38443;53.164;5.802;2024-03-07T13:05:10;25.70;;;12.68;;
52534;SDS011;38443;53.164;5.802;2024-03-07T13:07:43;29.17;;;14.73;;
52534;SDS011;38443;53.164;5.802;2024-03-07T13:12:33;28.45;;;14.68;;
52534;SDS011;38443;53.164;5.802;2024-03-07T13:17:24;27.25;;;12.63;;
52534;SDS011;38443;53.164;5.802;2024-03-07T13:19:50;29.13;;;14.10;;
52534;SDS011;38443;53.164;5.802;2024-03-07T13:22:24;28.38;;;13.85;;
52534;SDS011;38443;53.164;5.802;2024-03-07T13:27:15;27.57;;;13.40;;
52534;SDS011;38443;53.164;5.802;2024-03-07T13:29:44;24.40;;;13.25;;
52534;SDS011;38443;53.164;5.802;2024-03-07T13:32:10;28.02;;;14.18;;
52534;SDS011;38443;53.164;5.802;2024-03-07T13:34:39;25.80;;;12.80;;
52534;SDS011;38443;53.164;5.802;2024-03-07T13:39:30;28.98;;;13.27;;
52534;SDS011;38443;53.164;5.802;2024-03-07T13:44:20;27.57;;;13.10;;
52534;SDS011;38443;53.164;5.802;2024-03-07T13:46:47;27.52;;;13.20;;
52534;SDS011;38443;53.164;5.802;2024-03-07T13:51:41;28.52;;;13.70;;
52534;SDS011;38443;53.164;5.802;2024-03-07T13:54:16;24.42;;;12.35;;
52534;SDS011;38443;53.164;5.802;2024-03-07T13:57:16;24.45;;;12.10;;
52534;SDS011;38443;53.164;5.802;2024-03-07T13:59:53;23.42;;;12.50;;
52534;SDS011;38443;53.164;5.802;2024-03-07T14:15:27;26.75;;;11.48;;
52534;SDS011;38443;53.164;5.802;2024-03-07T14:26:01;23.67;;;11.57;;
52534;SDS011;38443;53.164;5.802;2024-03-07T14:30:55;24.45;;;13.00;;
52534;SDS011;38443;53.164;5.802;2024-03-07T14:33:24;24.23;;;12.20;;
52534;SDS011;38443;53.164;5.802;2024-03-07T14:36:09;24.83;;;11.63;;
52534;SDS011;38443;53.164;5.802;2024-03-07T14:41:17;24.10;;;11.02;;
52534;SDS011;38443;53.164;5.802;2024-03-07T14:43:43;20.35;;;11.20;;
52534;SDS011;38443;53.164;5.802;2024-03-07T14:48:34;25.13;;;10.60;;
52534;SDS011;38443;53.164;5.802;2024-03-07T14:51:00;25.42;;;10.77;;
52534;SDS011;38443;53.164;5.802;2024-03-07T14:55:51;17.30;;;10.77;;
52534;SDS011;38443;53.164;5.802;2024-03-07T14:58:17;20.92;;;11.00;;
52534;SDS011;38443;53.164;5.802;2024-03-07T15:03:09;20.95;;;10.73;;
52534;SDS011;38443;53.164;5.802;2024-03-07T15:05:35;22.15;;;11.32;;
52534;SDS011;38443;53.164;5.802;2024-03-07T15:10:27;22.33;;;12.60;;
52534;SDS011;38443;53.164;5.802;2024-03-07T15:12:53;21.88;;;12.65;;
52534;SDS011;38443;53.164;5.802;2024-03-07T15:17:45;24.42;;;11.30;;
52534;SDS011;38443;53.164;5.802;2024-03-07T15:20:10;20.73;;;10.77;;
52534;SDS011;38443;53.164;5.802;2024-03-07T15:22:51;20.17;;;11.10;;
52534;SDS011;38443;53.164;5.802;2024-03-07T15:25:18;25.50;;;10.65;;
52534;SDS011;38443;53.164;5.802;2024-03-07T15:30:08;21.88;;;10.70;;
52534;SDS011;38443;53.164;5.802;2024-03-07T15:32:39;20.95;;;11.00;;
52534;SDS011;38443;53.164;5.802;2024-03-07T15:37:36;20.30;;;10.13;;
52534;SDS011;38443;53.164;5.802;2024-03-07T15:40:04;24.02;;;12.70;;
52534;SDS011;38443;53.164;5.802;2024-03-07T15:42:29;19.88;;;11.45;;
52534;SDS011;38443;53.164;5.802;2024-03-07T15:44:56;23.13;;;10.70;;
52534;SDS011;38443;53.164;5.802;2024-03-07T15:49:46;18.20;;;11.73;;
52534;SDS011;38443;53.164;5.802;2024-03-07T15:52:12;19.80;;;10.85;;
52534;SDS011;38443;53.164;5.802;2024-03-07T15:54:37;25.10;;;11.83;;
52534;SDS011;38443;53.164;5.802;2024-03-07T15:59:28;19.27;;;10.55;;
52534;SDS011;38443;53.164;5.802;2024-03-07T16:01:54;22.98;;;10.88;;
52534;SDS011;38443;53.164;5.802;2024-03-07T16:04:19;22.33;;;11.70;;
52534;SDS011;38443;53.164;5.802;2024-03-07T16:06:48;20.98;;;11.30;;
52534;SDS011;38443;53.164;5.802;2024-03-07T16:11:47;18.75;;;10.43;;
52534;SDS011;38443;53.164;5.802;2024-03-07T16:16:41;22.25;;;10.82;;
52534;SDS011;38443;53.164;5.802;2024-03-07T16:19:06;19.90;;;10.27;;
52534;SDS011;38443;53.164;5.802;2024-03-07T16:21:35;22.23;;;10.27;;
52534;SDS011;38443;53.164;5.802;2024-03-07T16:24:03;23.65;;;10.23;;
52534;SDS011;38443;53.164;5.802;2024-03-07T16:28:54;22.52;;;10.93;;
52534;SDS011;38443;53.164;5.802;2024-03-07T16:33:45;20.52;;;11.35;;
52534;SDS011;38443;53.164;5.802;2024-03-07T16:38:35;25.17;;;12.93;;
52534;SDS011;38443;53.164;5.802;2024-03-07T16:43:26;26.77;;;12.68;;
52534;SDS011;38443;53.164;5.802;2024-03-07T16:48:18;27.42;;;12.13;;
52534;SDS011;38443;53.164;5.802;2024-03-07T16:53:08;28.63;;;12.63;;
52534;SDS011;38443;53.164;5.802;2024-03-07T16:58:01;26.20;;;13.95;;
52534;SDS011;38443;53.164;5.802;2024-03-07T17:00:28;24.70;;;12.98;;
52534;SDS011;38443;53.164;5.802;2024-03-07T17:05:19;25.98;;;11.93;;
52534;SDS011;38443;53.164;5.802;2024-03-07T17:10:10;22.70;;;10.77;;
52534;SDS011;38443;53.164;5.802;2024-03-07T17:12:41;22.35;;;11.35;;
52534;SDS011;38443;53.164;5.802;2024-03-07T17:15:08;21.55;;;12.07;;
52534;SDS011;38443;53.164;5.802;2024-03-07T17:17:38;23.10;;;12.00;;
52534;SDS011;38443;53.164;5.802;2024-03-07T17:20:03;22.50;;;11.43;;
52534;SDS011;38443;53.164;5.802;2024-03-07T17:24:55;23.83;;;12.45;;
52534;SDS011;38443;53.164;5.802;2024-03-07T17:29:45;20.80;;;12.00;;
52534;SDS011;38443;53.164;5.802;2024-03-07T17:34:36;23.95;;;12.30;;
52534;SDS011;38443;53.164;5.802;2024-03-07T17:39:26;22.75;;;11.80;;
52534;SDS011;38443;53.164;5.802;2024-03-07T17:44:16;22.45;;;12.13;;
52534;SDS011;38443;53.164;5.802;2024-03-07T17:49:07;29.73;;;12.73;;
52534;SDS011;38443;53.164;5.802;2024-03-07T17:51:32;24.43;;;11.43;;
52534;SDS011;38443;53.164;5.802;2024-03-07T17:56:22;26.30;;;11.97;;
52534;SDS011;38443;53.164;5.802;2024-03-07T17:58:51;24.13;;;12.98;;
52534;SDS011;38443;53.164;5.802;2024-03-07T18:03:42;23.10;;;12.20;;
52534;SDS011;38443;53.164;5.802;2024-03-07T18:06:08;22.15;;;12.93;;
52534;SDS011;38443;53.164;5.802;2024-03-07T18:11:00;23.30;;;11.52;;
52534;SDS011;38443;53.164;5.802;2024-03-07T18:15:50;23.77;;;12.50;;
52534;SDS011;38443;53.164;5.802;2024-03-07T18:20:41;23.88;;;11.77;;
52534;SDS011;38443;53.164;5.802;2024-03-07T18:23:07;22.90;;;11.88;;
52534;SDS011;38443;53.164;5.802;2024-03-07T18:25:33;23.02;;;12.20;;
52534;SDS011;38443;53.164;5.802;2024-03-07T18:28:01;26.83;;;12.70;;
52534;SDS011;38443;53.164;5.802;2024-03-07T18:30:28;20.92;;;11.95;;
52534;SDS011;38443;53.164;5.802;2024-03-07T18:32:55;22.05;;;11.65;;
52534;SDS011;38443;53.164;5.802;2024-03-07T18:35:21;20.83;;;11.43;;
52534;SDS011;38443;53.164;5.802;2024-03-07T18:40:15;30.33;;;13.27;;
52534;SDS011;38443;53.164;5.802;2024-03-07T18:45:10;25.35;;;13.55;;
52534;SDS011;38443;53.164;5.802;2024-03-07T18:47:40;24.65;;;14.02;;
52534;SDS011;38443;53.164;5.802;2024-03-07T18:50:06;27.38;;;14.25;;
52534;SDS011;38443;53.164;5.802;2024-03-07T18:52:34;35.35;;;16.17;;
52534;SDS011;38443;53.164;5.802;2024-03-07T18:57:39;28.67;;;14.65;;
52534;SDS011;38443;53.164;5.802;2024-03-07T19:02:44;31.40;;;15.50;;
52534;SDS011;38443;53.164;5.802;2024-03-07T19:05:10;32.15;;;16.30;;
52534;SDS011;38443;53.164;5.802;2024-03-07T19:07:37;33.67;;;15.40;;
52534;SDS011;38443;53.164;5.802;2024-03-07T19:12:42;28.25;;;13.45;;
52534;SDS011;38443;53.164;5.802;2024-03-07T19:17:35;27.92;;;14.63;;
52534;SDS011;38443;53.164;5.802;2024-03-07T19:22:36;30.33;;;12.63;;
52534;SDS011;38443;53.164;5.802;2024-03-07T19:27:29;29.10;;;14.50;;
52534;SDS011;38443;53.164;5.802;2024-03-07T19:32:20;26.65;;;12.70;;
52534;SDS011;38443;53.164;5.802;2024-03-07T19:37:10;24.23;;;12.75;;
52534;SDS011;38443;53.164;5.802;2024-03-07T19:39:36;25.88;;;12.63;;
52534;SDS011;38443;53.164;5.802;2024-03-07T19:44:28;30.50;;;13.32;;
52534;SDS011;38443;53.164;5.802;2024-03-07T19:46:57;28.85;;;14.35;;
52534;SDS011;38443;53.164;5.802;2024-03-07T19:51:48;37.08;;;15.18;;
52534;SDS011;38443;53.164;5.802;2024-03-07T19:54:15;31.08;;;14.65;;
52534;SDS011;38443;53.164;5.802;2024-03-07T19:56:41;33.75;;;14.77;;
52534;SDS011;38443;53.164;5.802;2024-03-07T20:01:35;29.40;;;13.57;;
52534;SDS011;38443;53.164;5.802;2024-03-07T20:04:03;29.27;;;14.45;;
52534;SDS011;38443;53.164;5.802;2024-03-07T20:08:54;31.48;;;13.05;;
52534;SDS011;38443;53.164;5.802;2024-03-07T20:11:24;23.58;;;11.77;;
52534;SDS011;38443;53.164;5.802;2024-03-07T20:16:14;24.55;;;11.88;;
52534;SDS011;38443;53.164;5.802;2024-03-07T20:21:04;28.00;;;13.57;;
52534;SDS011;38443;53.164;5.802;2024-03-07T20:25:55;24.23;;;11.85;;
52534;SDS011;38443;53.164;5.802;2024-03-07T20:30:46;25.10;;;12.10;;
52534;SDS011;38443;53.164;5.802;2024-03-07T20:33:11;22.50;;;12.25;;
52534;SDS011;38443;53.164;5.802;2024-03-07T20:38:02;24.98;;;12.38;;
52534;SDS011;38443;53.164;5.802;2024-03-07T20:40:29;26.73;;;12.32;;
52534;SDS011;38443;53.164;5.802;2024-03-07T20:47:48;28.93;;;13.63;;
52534;SDS011;38443;53.164;5.802;2024-03-07T20:52:40;31.02;;;13.75;;
52534;SDS011;38443;53.164;5.802;2024-03-07T20:55:09;30.95;;;14.25;;
52534;SDS011;38443;53.164;5.802;2024-03-07T20:57:40;26.23;;;13.77;;
52534;SDS011;38443;53.164;5.802;2024-03-07T21:00:07;26.35;;;13.15;;
52534;SDS011;38443;53.164;5.802;2024-03-07T21:02:39;28.33;;;14.13;;
52534;SDS011;38443;53.164;5.802;2024-03-07T21:07:29;30.80;;;13.82;;
52534;SDS011;38443;53.164;5.802;2024-03-07T21:12:20;32.90;;;15.05;;
52534;SDS011;38443;53.164;5.802;2024-03-07T21:17:10;28.25;;;13.90;;
52534;SDS011;38443;53.164;5.802;2024-03-07T21:22:01;35.63;;;15.43;;
52534;SDS011;38443;53.164;5.802;2024-03-07T21:24:26;34.92;;;15.70;;
52534;SDS011;38443;53.164;5.802;2024-03-07T21:29:18;30.80;;;14.38;;
52534;SDS011;38443;53.164;5.802;2024-03-07T21:34:08;33.25;;;15.40;;
52534;SDS011;38443;53.164;5.802;2024-03-07T21:38:59;36.78;;;15.80;;
52534;SDS011;38443;53.164;5.802;2024-03-07T21:43:50;44.45;;;17.55;;
52534;SDS011;38443;53.164;5.802;2024-03-07T21:46:16;32.78;;;13.93;;
52534;SDS011;38443;53.164;5.802;2024-03-07T21:51:08;36.00;;;14.80;;
52534;SDS011;38443;53.164;5.802;2024-03-07T21:53:35;30.70;;;15.23;;
52534;SDS011;38443;53.164;5.802;2024-03-07T21:58:27;35.13;;;15.82;;
52534;SDS011;38443;53.164;5.802;2024-03-07T22:03:21;34.45;;;15.30;;
52534;SDS011;38443;53.164;5.802;2024-03-07T22:08:12;28.15;;;14.45;;
52534;SDS011;38443;53.164;5.802;2024-03-07T22:13:03;33.40;;;15.30;;
52534;SDS011;38443;53.164;5.802;2024-03-07T22:15:30;29.70;;;15.30;;
52534;SDS011;38443;53.164;5.802;2024-03-07T22:20:22;34.30;;;15.80;;
52534;SDS011;38443;53.164;5.802;2024-03-07T22:22:48;34.10;;;15.00;;
52534;SDS011;38443;53.164;5.802;2024-03-07T22:27:39;31.25;;;14.25;;
52534;SDS011;38443;53.164;5.802;2024-03-07T22:32:33;30.83;;;13.93;;
52534;SDS011;38443;53.164;5.802;2024-03-07T22:37:23;30.42;;;14.85;;
52534;SDS011;38443;53.164;5.802;2024-03-07T22:42:17;28.55;;;14.13;;
52534;SDS011;38443;53.164;5.802;2024-03-07T22:47:08;30.27;;;14.10;;
52534;SDS011;38443;53.164;5.802;2024-03-07T22:49:35;26.83;;;13.90;;
52534;SDS011;38443;53.164;5.802;2024-03-07T22:54:25;27.23;;;12.65;;
52534;SDS011;38443;53.164;5.802;2024-03-07T22:56:52;34.55;;;15.77;;
52534;SDS011;38443;53.164;5.802;2024-03-07T23:01:42;36.47;;;15.07;;
52534;SDS011;38443;53.164;5.802;2024-03-07T23:06:33;30.98;;;13.57;;
52534;SDS011;38443;53.164;5.802;2024-03-07T23:11:23;27.38;;;14.30;;
52534;SDS011;38443;53.164;5.802;2024-03-07T23:16:14;27.30;;;13.90;;
52534;SDS011;38443;53.164;5.802;2024-03-07T23:21:05;28.52;;;12.10;;